createdAt,value
2018-09-30T00:00:53.195Z,968.45
2018-09-30T00:01:53.221Z,968.44
2018-09-30T00:02:53.202Z,968.45
2018-09-30T00:03:53.214Z,968.41
2018-09-30T00:04:53.225Z,968.40
2018-09-30T00:05:53.203Z,968.41
2018-09-30T00:06:53.207Z,968.33
2018-09-30T00:07:53.177Z,968.34
2018-09-30T00:08:53.146Z,968.27
2018-09-30T00:09:53.140Z,968.31
2018-09-30T00:10:53.134Z,968.27
2018-09-30T00:11:53.126Z,968.24
2018-09-30T00:12:53.127Z,968.23
2018-09-30T00:13:53.133Z,968.18
2018-09-30T00:14:53.111Z,968.21
2018-09-30T00:15:53.107Z,968.24
2018-09-30T00:16:53.100Z,968.25
2018-09-30T00:17:53.093Z,968.23
2018-09-30T00:18:53.088Z,968.22
2018-09-30T00:19:53.081Z,968.14
2018-09-30T00:20:53.075Z,968.20
2018-09-30T00:21:53.066Z,968.14
2018-09-30T00:22:53.065Z,968.14
2018-09-30T00:23:53.058Z,968.20
2018-09-30T00:24:53.055Z,968.18
2018-09-30T00:25:53.048Z,968.13
2018-09-30T00:26:53.049Z,968.10
2018-09-30T00:27:53.041Z,968.07
2018-09-30T00:28:53.034Z,968.14
2018-09-30T00:29:53.026Z,968.14
2018-09-30T00:30:53.018Z,968.08
2018-09-30T00:31:53.016Z,968.14
2018-09-30T00:32:53.008Z,968.16
2018-09-30T00:33:53.003Z,968.19
2018-09-30T00:34:52.997Z,968.10
2018-09-30T00:35:52.991Z,968.18
2018-09-30T00:36:52.986Z,968.14
2018-09-30T00:37:52.984Z,968.16
2018-09-30T00:38:52.976Z,968.16
2018-09-30T00:39:52.970Z,968.10
2018-09-30T00:40:52.965Z,968.06
2018-09-30T00:41:52.960Z,968.08
2018-09-30T00:42:52.955Z,968.07
2018-09-30T00:43:52.950Z,968.05
2018-09-30T00:44:52.943Z,968.07
2018-09-30T00:45:52.940Z,968.07
2018-09-30T00:46:52.935Z,968.06
2018-09-30T00:47:52.931Z,968.09
2018-09-30T00:48:52.928Z,968.02
2018-09-30T00:49:52.918Z,968.01
2018-09-30T00:50:52.913Z,968.04
2018-09-30T00:51:52.908Z,967.97
2018-09-30T00:52:52.902Z,968.02
2018-09-30T00:53:52.893Z,968.03
2018-09-30T00:54:52.894Z,967.98
2018-09-30T00:55:52.888Z,967.97
2018-09-30T00:56:52.885Z,967.99
2018-09-30T00:57:52.877Z,967.99
2018-09-30T00:58:52.874Z,967.95
2018-09-30T00:59:52.871Z,967.95
2018-09-30T01:00:52.864Z,967.88
2018-09-30T01:01:52.859Z,967.94
2018-09-30T01:02:52.854Z,967.96
2018-09-30T01:03:52.847Z,967.94
2018-09-30T01:04:52.847Z,967.92
2018-09-30T01:05:52.841Z,967.93
2018-09-30T01:06:52.835Z,967.91
2018-09-30T01:07:52.829Z,967.87
2018-09-30T01:08:52.825Z,967.84
2018-09-30T01:09:52.821Z,967.85
2018-09-30T01:10:52.816Z,967.82
2018-09-30T01:11:52.811Z,967.83
2018-09-30T01:12:52.812Z,967.84
2018-09-30T01:13:52.799Z,967.83
2018-09-30T01:14:52.798Z,967.82
2018-09-30T01:15:52.793Z,967.73
2018-09-30T01:16:52.794Z,967.83
2018-09-30T01:17:52.785Z,967.82
2018-09-30T01:18:52.776Z,967.76
2018-09-30T01:19:52.773Z,967.72
2018-09-30T01:20:52.766Z,967.74
2018-09-30T01:21:52.762Z,967.76
2018-09-30T01:22:52.760Z,967.67
2018-09-30T01:23:52.759Z,967.74
2018-09-30T01:24:52.757Z,967.76
2018-09-30T01:25:52.749Z,967.75
2018-09-30T01:26:52.739Z,967.73
2018-09-30T01:27:52.739Z,967.73
2018-09-30T01:28:52.733Z,967.74
2018-09-30T01:29:52.727Z,967.71
2018-09-30T01:30:52.738Z,967.68
2018-09-30T01:31:52.743Z,967.72
2018-09-30T01:32:52.715Z,967.70
2018-09-30T01:33:52.711Z,967.71
2018-09-30T01:34:52.705Z,967.75
2018-09-30T01:35:52.704Z,967.72
2018-09-30T01:36:52.695Z,967.74
2018-09-30T01:37:52.690Z,967.82
2018-09-30T01:38:52.691Z,967.85
2018-09-30T01:39:52.703Z,967.82
2018-09-30T01:40:52.681Z,967.82
2018-09-30T01:41:52.687Z,967.83
2018-09-30T01:42:52.671Z,967.83
2018-09-30T01:43:52.669Z,967.80
2018-09-30T01:44:52.662Z,967.81
2018-09-30T01:45:52.659Z,967.77
2018-09-30T01:46:52.659Z,967.79
2018-09-30T01:47:52.650Z,967.79
2018-09-30T01:48:52.646Z,967.73
2018-09-30T01:49:52.643Z,967.68
2018-09-30T01:50:52.638Z,967.68
2018-09-30T01:51:52.635Z,967.69
2018-09-30T01:52:52.630Z,967.74
2018-09-30T01:53:52.633Z,967.73
2018-09-30T01:54:52.622Z,967.70
2018-09-30T01:55:52.619Z,967.71
2018-09-30T01:56:52.616Z,967.67
2018-09-30T01:57:52.606Z,967.60
2018-09-30T01:58:52.605Z,967.62
2018-09-30T01:59:52.601Z,967.57
2018-09-30T02:00:52.610Z,967.55
2018-09-30T02:01:52.592Z,967.50
2018-09-30T02:02:52.587Z,967.51
2018-09-30T02:03:52.582Z,967.46
2018-09-30T02:04:52.579Z,967.48
2018-09-30T02:05:52.574Z,967.41
2018-09-30T02:06:52.571Z,967.35
2018-09-30T02:07:52.565Z,967.37
2018-09-30T02:08:52.560Z,967.41
2018-09-30T02:09:52.557Z,967.38
2018-09-30T02:10:52.551Z,967.38
2018-09-30T02:11:52.548Z,967.38
2018-09-30T02:12:52.548Z,967.38
2018-09-30T02:13:52.542Z,967.33
2018-09-30T02:14:52.534Z,967.30
2018-09-30T02:15:52.530Z,967.29
2018-09-30T02:16:52.525Z,967.23
2018-09-30T02:17:52.526Z,967.25
2018-09-30T02:18:52.517Z,967.21
2018-09-30T02:19:52.511Z,967.17
2018-09-30T02:20:52.507Z,967.15
2018-09-30T02:21:52.503Z,967.16
2018-09-30T02:22:52.499Z,967.17
2018-09-30T02:23:52.495Z,967.16
2018-09-30T02:24:52.490Z,967.13
2018-09-30T02:25:52.483Z,967.09
2018-09-30T02:26:52.484Z,967.05
2018-09-30T02:27:52.480Z,967.08
2018-09-30T02:28:52.472Z,967.09
2018-09-30T02:29:52.466Z,967.04
2018-09-30T02:30:52.462Z,967.05
2018-09-30T02:31:52.459Z,967.02
2018-09-30T02:32:52.453Z,967.01
2018-09-30T02:33:52.448Z,967.03
2018-09-30T02:34:52.451Z,967.00
2018-09-30T02:35:52.448Z,966.97
2018-09-30T02:36:52.435Z,966.99
2018-09-30T02:37:52.429Z,966.99
2018-09-30T02:38:52.425Z,966.98
2018-09-30T02:39:52.426Z,966.93
2018-09-30T02:40:52.417Z,966.92
2018-09-30T02:41:52.411Z,966.93
2018-09-30T02:42:52.405Z,966.90
2018-09-30T02:43:52.401Z,966.90
2018-09-30T02:44:52.397Z,966.86
2018-09-30T02:45:52.393Z,966.89
2018-09-30T02:46:52.393Z,966.87
2018-09-30T02:47:52.384Z,966.84
2018-09-30T02:48:52.379Z,966.79
2018-09-30T02:49:52.372Z,966.85
2018-09-30T02:50:52.378Z,966.76
2018-09-30T02:51:52.366Z,966.75
2018-09-30T02:52:52.364Z,966.72
2018-09-30T02:53:52.358Z,966.73
2018-09-30T02:54:52.349Z,966.73
2018-09-30T02:55:52.346Z,966.73
2018-09-30T02:56:52.341Z,966.73
2018-09-30T02:57:52.343Z,966.67
2018-09-30T02:58:52.331Z,966.66
2018-09-30T02:59:52.329Z,966.69
2018-09-30T03:00:52.320Z,966.69
2018-09-30T03:01:52.315Z,966.74
2018-09-30T03:02:52.317Z,966.70
2018-09-30T03:03:52.309Z,966.67
2018-09-30T03:04:52.300Z,966.66
2018-09-30T03:05:52.298Z,966.68
2018-09-30T03:06:52.293Z,966.63
2018-09-30T03:07:52.290Z,966.59
2018-09-30T03:08:52.327Z,966.64
2018-09-30T03:09:52.287Z,966.58
2018-09-30T03:10:52.281Z,966.56
2018-09-30T03:11:52.282Z,966.58
2018-09-30T03:12:52.266Z,966.59
2018-09-30T03:13:52.266Z,966.54
2018-09-30T03:14:52.262Z,966.56
2018-09-30T03:15:52.271Z,966.52
2018-09-30T03:16:52.247Z,966.49
2018-09-30T03:17:52.243Z,966.46
2018-09-30T03:18:52.238Z,966.43
2018-09-30T03:19:52.232Z,966.42
2018-09-30T03:20:52.229Z,966.45
2018-09-30T03:21:52.224Z,966.38
2018-09-30T03:22:52.220Z,966.41
2018-09-30T03:23:52.215Z,966.39
2018-09-30T03:24:52.215Z,966.34
2018-09-30T03:25:52.206Z,966.36
2018-09-30T03:26:52.201Z,966.39
2018-09-30T03:27:52.195Z,966.34
2018-09-30T03:28:52.191Z,966.31
2018-09-30T03:29:52.187Z,966.30
2018-09-30T03:30:52.183Z,966.27
2018-09-30T03:31:52.180Z,966.29
2018-09-30T03:32:52.175Z,966.24
2018-09-30T03:33:52.180Z,966.24
2018-09-30T03:34:52.166Z,966.20
2018-09-30T03:35:52.160Z,966.25
2018-09-30T03:36:52.154Z,966.17
2018-09-30T03:37:52.152Z,966.20
2018-09-30T03:38:52.169Z,966.17
2018-09-30T03:39:52.144Z,966.18
2018-09-30T03:40:52.155Z,966.17
2018-09-30T03:41:52.136Z,966.17
2018-09-30T03:42:52.127Z,966.20
2018-09-30T03:43:52.126Z,966.19
2018-09-30T03:44:52.122Z,966.18
2018-09-30T03:45:52.119Z,966.16
2018-09-30T03:46:52.112Z,966.19
2018-09-30T03:47:52.106Z,966.13
2018-09-30T03:48:52.102Z,966.13
2018-09-30T03:49:52.099Z,966.13
2018-09-30T03:50:52.098Z,966.10
2018-09-30T03:51:52.090Z,966.11
2018-09-30T03:52:52.086Z,966.06
2018-09-30T03:53:52.080Z,966.03
2018-09-30T03:54:52.077Z,966.08
2018-09-30T03:55:52.080Z,966.09
2018-09-30T03:56:52.069Z,966.08
2018-09-30T03:57:52.072Z,966.04
2018-09-30T03:58:52.060Z,966.09
2018-09-30T03:59:54.715Z,966.13
2018-09-30T04:00:52.052Z,966.09
2018-09-30T04:01:52.047Z,966.08
2018-09-30T04:02:52.044Z,966.07
2018-09-30T04:03:52.039Z,966.04
2018-09-30T04:04:52.037Z,966.06
2018-09-30T04:05:52.033Z,966.05
2018-09-30T04:06:52.031Z,966.07
2018-09-30T04:07:52.023Z,966.03
2018-09-30T04:08:52.015Z,966.04
2018-09-30T04:09:52.038Z,966.05
2018-09-30T04:10:52.012Z,966.01
2018-09-30T04:11:52.004Z,965.98
2018-09-30T04:12:52.000Z,966.00
2018-09-30T04:13:51.993Z,965.95
2018-09-30T04:14:51.991Z,965.94
2018-09-30T04:15:51.985Z,965.95
2018-09-30T04:16:52.060Z,965.94
2018-09-30T04:17:51.978Z,965.85
2018-09-30T04:18:51.972Z,965.86
2018-09-30T04:19:51.970Z,965.87
2018-09-30T04:20:51.963Z,965.85
2018-09-30T04:21:51.960Z,965.85
2018-09-30T04:22:51.957Z,965.79
2018-09-30T04:23:51.953Z,965.80
2018-09-30T04:24:51.967Z,965.77
2018-09-30T04:25:51.947Z,965.82
2018-09-30T04:26:51.950Z,965.81
2018-09-30T04:27:51.935Z,965.79
2018-09-30T04:28:51.930Z,965.77
2018-09-30T04:29:51.929Z,965.76
2018-09-30T04:30:51.917Z,965.76
2018-09-30T04:31:51.920Z,965.74
2018-09-30T04:32:51.929Z,965.80
2018-09-30T04:33:51.907Z,965.81
2018-09-30T04:34:51.905Z,965.73
2018-09-30T04:35:51.898Z,965.75
2018-09-30T04:36:51.900Z,965.76
2018-09-30T04:37:51.890Z,965.76
2018-09-30T04:38:51.886Z,965.74
2018-09-30T04:39:51.882Z,965.72
2018-09-30T04:40:51.874Z,965.77
2018-09-30T04:41:51.881Z,965.73
2018-09-30T04:42:51.876Z,965.71
2018-09-30T04:43:51.870Z,965.68
2018-09-30T04:44:51.860Z,965.69
2018-09-30T04:45:51.854Z,965.67
2018-09-30T04:46:51.850Z,965.72
2018-09-30T04:47:51.845Z,965.69
2018-09-30T04:48:51.842Z,965.65
2018-09-30T04:49:51.851Z,965.65
2018-09-30T04:50:51.831Z,965.62
2018-09-30T04:51:51.828Z,965.67
2018-09-30T04:52:51.827Z,965.63
2018-09-30T04:53:51.818Z,965.65
2018-09-30T04:54:51.816Z,965.63
2018-09-30T04:55:51.812Z,965.68
2018-09-30T04:56:51.807Z,965.72
2018-09-30T04:57:51.801Z,965.61
2018-09-30T04:58:51.798Z,965.63
2018-09-30T04:59:51.796Z,965.61
2018-09-30T05:00:51.789Z,965.60
2018-09-30T05:01:51.785Z,965.56
2018-09-30T05:02:51.779Z,965.54
2018-09-30T05:03:51.782Z,965.57
2018-09-30T05:04:51.774Z,965.50
2018-09-30T05:05:51.844Z,965.56
2018-09-30T05:06:51.763Z,965.48
2018-09-30T05:07:51.761Z,965.51
2018-09-30T05:08:51.757Z,965.51
2018-09-30T05:09:51.751Z,965.55
2018-09-30T05:10:51.747Z,965.56
2018-09-30T05:11:51.743Z,965.50
2018-09-30T05:12:51.738Z,965.53
2018-09-30T05:13:51.733Z,965.48
2018-09-30T05:14:51.731Z,965.49
2018-09-30T05:15:51.802Z,965.46
2018-09-30T05:16:51.720Z,965.52
2018-09-30T05:17:51.717Z,965.48
2018-09-30T05:18:51.714Z,965.50
2018-09-30T05:19:51.707Z,965.47
2018-09-30T05:20:51.707Z,965.49
2018-09-30T05:21:51.700Z,965.48
2018-09-30T05:22:51.696Z,965.50
2018-09-30T05:23:51.699Z,965.50
2018-09-30T05:24:51.688Z,965.56
2018-09-30T05:25:51.689Z,965.53
2018-09-30T05:26:51.693Z,965.52
2018-09-30T05:27:51.676Z,965.51
2018-09-30T05:28:51.672Z,965.53
2018-09-30T05:29:51.667Z,965.51
2018-09-30T05:30:51.694Z,965.53
2018-09-30T05:31:51.657Z,965.60
2018-09-30T05:32:51.656Z,965.55
2018-09-30T05:33:51.650Z,965.51
2018-09-30T05:34:51.784Z,965.51
2018-09-30T05:35:51.661Z,965.54
2018-09-30T05:36:51.639Z,965.51
2018-09-30T05:37:51.635Z,965.51
2018-09-30T05:38:51.630Z,965.52
2018-09-30T05:39:51.627Z,965.56
2018-09-30T05:40:51.630Z,965.50
2018-09-30T05:41:51.620Z,965.52
2018-09-30T05:42:51.664Z,965.56
2018-09-30T05:43:51.613Z,965.57
2018-09-30T05:44:51.608Z,965.55
2018-09-30T05:45:51.677Z,965.56
2018-09-30T05:46:51.600Z,965.60
2018-09-30T05:47:51.611Z,965.54
2018-09-30T05:48:51.594Z,965.59
2018-09-30T05:49:51.589Z,965.58
2018-09-30T05:50:51.589Z,965.58
2018-09-30T05:51:53.279Z,965.55
2018-09-30T05:52:51.581Z,965.59
2018-09-30T05:53:51.571Z,965.54
2018-09-30T05:54:51.572Z,965.56
2018-09-30T05:55:51.586Z,965.53
2018-09-30T05:56:51.566Z,965.56
2018-09-30T05:57:51.610Z,965.54
2018-09-30T05:58:51.562Z,965.49
2018-09-30T05:59:51.554Z,965.44
2018-09-30T06:00:51.550Z,965.43
2018-09-30T06:01:51.548Z,965.45
2018-09-30T06:02:51.610Z,965.43
2018-09-30T06:03:51.581Z,965.47
2018-09-30T06:04:51.544Z,965.43
2018-09-30T06:05:51.534Z,965.40
2018-09-30T06:06:51.529Z,965.42
2018-09-30T06:07:51.522Z,965.45
2018-09-30T06:08:51.569Z,965.46
2018-09-30T06:09:51.512Z,965.44
2018-09-30T06:10:51.511Z,965.48
2018-09-30T06:11:51.507Z,965.46
2018-09-30T06:12:51.502Z,965.44
2018-09-30T06:13:51.538Z,965.48
2018-09-30T06:14:51.515Z,965.43
2018-09-30T06:15:51.497Z,965.48
2018-09-30T06:16:51.490Z,965.47
2018-09-30T06:17:51.492Z,965.49
2018-09-30T06:18:51.488Z,965.46
2018-09-30T06:19:51.479Z,965.48
2018-09-30T06:20:51.476Z,965.49
2018-09-30T06:21:51.475Z,965.54
2018-09-30T06:22:51.469Z,965.54
2018-09-30T06:23:51.463Z,965.51
2018-09-30T06:24:51.464Z,965.55
2018-09-30T06:25:51.463Z,965.54
2018-09-30T06:26:51.462Z,965.67
2018-09-30T06:27:51.458Z,965.73
2018-09-30T06:28:51.449Z,965.79
2018-09-30T06:29:51.447Z,965.75
2018-09-30T06:30:51.444Z,965.76
2018-09-30T06:31:51.452Z,965.77
2018-09-30T06:32:51.439Z,965.81
2018-09-30T06:33:51.438Z,965.85
2018-09-30T06:34:51.433Z,965.93
2018-09-30T06:35:51.435Z,965.91
2018-09-30T06:36:51.433Z,966.02
2018-09-30T06:37:51.439Z,966.11
2018-09-30T06:38:53.233Z,966.21
2018-09-30T06:39:51.433Z,966.40
2018-09-30T06:40:51.431Z,966.53
2018-09-30T06:41:51.432Z,966.67
2018-09-30T06:42:51.432Z,966.81
2018-09-30T06:43:51.435Z,966.93
2018-09-30T06:44:51.451Z,967.00
2018-09-30T06:45:51.437Z,967.12
2018-09-30T06:46:51.441Z,967.55
2018-09-30T06:47:51.440Z,968.35
2018-09-30T06:48:51.446Z,968.81
2018-09-30T06:49:51.448Z,968.81
2018-09-30T06:50:51.475Z,968.65
2018-09-30T06:51:51.454Z,968.42
2018-09-30T06:52:51.468Z,968.04
2018-09-30T06:53:51.465Z,967.79
2018-09-30T06:54:51.471Z,967.65
2018-09-30T06:55:51.513Z,967.52
2018-09-30T06:56:51.490Z,967.40
2018-09-30T06:57:51.509Z,967.43
2018-09-30T06:58:51.506Z,967.45
2018-09-30T06:59:51.510Z,967.23
2018-09-30T07:00:51.520Z,967.13
2018-09-30T07:01:51.503Z,967.13
2018-09-30T07:02:51.536Z,967.10
2018-09-30T07:03:51.548Z,967.01
2018-09-30T07:04:51.564Z,967.08
2018-09-30T07:05:51.550Z,967.10
2018-09-30T07:06:51.560Z,967.03
2018-09-30T07:07:51.548Z,967.04
2018-09-30T07:08:51.573Z,967.04
2018-09-30T07:09:51.601Z,966.97
2018-09-30T07:10:51.616Z,966.95
2018-09-30T07:11:51.554Z,966.95
2018-09-30T07:12:51.561Z,966.92
2018-09-30T07:13:51.561Z,966.90
2018-09-30T07:14:51.567Z,966.89
2018-09-30T07:15:51.572Z,966.87
2018-09-30T07:16:51.597Z,966.81
2018-09-30T07:17:51.592Z,966.84
2018-09-30T07:18:51.597Z,966.88
2018-09-30T07:19:51.598Z,966.87
2018-09-30T07:20:51.603Z,966.83
2018-09-30T07:21:51.614Z,966.81
2018-09-30T07:22:51.719Z,966.83
2018-09-30T07:23:51.629Z,966.90
2018-09-30T07:24:51.626Z,966.87
2018-09-30T07:25:51.632Z,966.84
2018-09-30T07:26:51.640Z,967.01
2018-09-30T07:27:51.654Z,967.23
2018-09-30T07:28:51.654Z,967.34
2018-09-30T07:29:51.663Z,967.37
2018-09-30T07:30:51.758Z,967.57
2018-09-30T07:31:58.821Z,967.73
2018-09-30T07:33:44.631Z,967.53
2018-09-30T07:34:44.926Z,967.16
2018-09-30T07:36:38.516Z,966.66
2018-09-30T07:37:40.989Z,966.55
2018-09-30T07:39:32.054Z,966.38
2018-09-30T07:40:31.419Z,966.34
2018-09-30T07:42:24.398Z,966.26
2018-09-30T07:43:24.367Z,966.32
2018-09-30T07:45:17.220Z,966.77
2018-09-30T07:46:17.235Z,967.06
2018-09-30T07:48:10.193Z,967.33
2018-09-30T07:49:10.302Z,967.45
2018-09-30T07:50:10.191Z,967.48
2018-09-30T07:51:10.397Z,967.52
2018-09-30T07:52:10.495Z,967.64
2018-09-30T07:53:10.240Z,967.64
2018-09-30T07:54:10.268Z,967.62
2018-09-30T07:55:10.343Z,967.62
2018-09-30T07:56:10.243Z,967.69
2018-09-30T07:57:10.249Z,967.63
2018-09-30T07:58:10.288Z,967.61
2018-09-30T07:59:10.282Z,967.60
2018-09-30T08:00:10.276Z,967.61
2018-09-30T08:01:10.279Z,967.60
2018-09-30T08:02:10.287Z,967.60
2018-09-30T08:03:10.300Z,967.60
2018-09-30T08:04:10.309Z,967.53
2018-09-30T08:05:10.318Z,967.49
2018-09-30T08:06:10.331Z,967.51
2018-09-30T08:07:10.358Z,967.49
2018-09-30T08:08:10.347Z,967.42
2018-09-30T08:09:10.356Z,967.43
2018-09-30T08:10:10.365Z,967.40
2018-09-30T08:11:10.375Z,967.33
2018-09-30T08:12:10.385Z,967.32
2018-09-30T08:13:10.401Z,967.28
2018-09-30T08:14:10.414Z,967.23
2018-09-30T08:15:10.421Z,967.23
2018-09-30T08:16:10.426Z,967.24
2018-09-30T08:17:10.481Z,967.28
2018-09-30T08:18:10.448Z,967.24
2018-09-30T08:19:10.461Z,967.19
2018-09-30T08:20:10.467Z,967.12
2018-09-30T08:21:10.478Z,967.05
2018-09-30T08:22:10.490Z,967.02
2018-09-30T08:23:10.501Z,967.00
2018-09-30T08:24:10.594Z,966.98
2018-09-30T08:25:10.576Z,966.96
2018-09-30T08:26:10.537Z,967.00
2018-09-30T08:27:10.541Z,966.95
2018-09-30T08:28:10.551Z,967.02
2018-09-30T08:29:10.609Z,966.94
2018-09-30T08:30:10.576Z,967.00
2018-09-30T08:31:10.588Z,966.98
2018-09-30T08:32:10.596Z,966.97
2018-09-30T08:33:10.606Z,966.93
2018-09-30T08:34:10.629Z,966.94
2018-09-30T08:35:10.631Z,966.98
2018-09-30T08:36:10.638Z,966.90
2018-09-30T08:37:10.647Z,966.86
2018-09-30T08:38:10.666Z,966.85
2018-09-30T08:39:10.679Z,966.92
2018-09-30T08:40:10.694Z,966.95
2018-09-30T08:41:10.706Z,966.97
2018-09-30T08:42:10.712Z,966.92
2018-09-30T08:43:10.723Z,966.94
2018-09-30T08:44:10.785Z,966.86
2018-09-30T08:45:10.750Z,966.92
2018-09-30T08:46:10.760Z,966.98
2018-09-30T08:47:10.777Z,966.97
2018-09-30T08:48:10.785Z,966.95
2018-09-30T08:49:10.832Z,966.89
2018-09-30T08:50:10.810Z,966.87
2018-09-30T08:51:10.825Z,966.89
2018-09-30T08:52:10.837Z,966.83
2018-09-30T08:53:10.848Z,966.80
2018-09-30T08:54:10.862Z,966.79
2018-09-30T08:55:10.873Z,966.79
2018-09-30T08:56:10.950Z,966.75
2018-09-30T08:57:10.900Z,966.77
2018-09-30T08:58:10.916Z,966.79
2018-09-30T08:59:10.930Z,966.80
2018-09-30T09:00:10.941Z,966.82
2018-09-30T09:01:10.955Z,966.78
2018-09-30T09:02:10.968Z,966.77
2018-09-30T09:03:11.061Z,966.76
2018-09-30T09:04:10.997Z,966.79
2018-09-30T09:05:11.015Z,966.73
2018-09-30T09:06:11.023Z,966.68
2018-09-30T09:07:11.040Z,966.70
2018-09-30T09:08:11.050Z,966.69
2018-09-30T09:09:11.065Z,966.65
2018-09-30T09:10:11.076Z,966.66
2018-09-30T09:11:11.089Z,966.71
2018-09-30T09:12:11.105Z,966.71
2018-09-30T09:13:11.118Z,966.66
2018-09-30T09:14:11.139Z,966.69
2018-09-30T09:15:11.146Z,966.66
2018-09-30T09:16:11.162Z,966.65
2018-09-30T09:17:11.225Z,966.60
2018-09-30T09:18:11.217Z,966.62
2018-09-30T09:19:11.375Z,966.56
2018-09-30T09:20:11.243Z,966.56
2018-09-30T09:21:11.263Z,966.54
2018-09-30T09:22:11.309Z,966.54
2018-09-30T09:23:11.336Z,966.50
2018-09-30T09:24:22.935Z,966.47
2018-09-30T09:25:11.530Z,966.46
2018-09-30T09:26:11.303Z,966.49
2018-09-30T09:27:11.353Z,966.48
2018-09-30T09:28:12.600Z,966.44
2018-09-30T09:29:11.354Z,966.42
2018-09-30T09:30:11.352Z,966.41
2018-09-30T09:31:13.269Z,966.39
2018-09-30T09:32:11.395Z,966.35
2018-09-30T09:33:11.648Z,966.33
2018-09-30T09:34:11.682Z,966.29
2018-09-30T09:35:11.500Z,966.31
2018-09-30T09:36:11.567Z,966.32
2018-09-30T09:37:11.588Z,966.38
2018-09-30T09:38:15.490Z,966.38
2018-09-30T09:39:19.598Z,966.37
2018-09-30T09:41:17.392Z,966.30
2018-09-30T09:42:10.574Z,966.32
2018-09-30T09:44:05.603Z,966.35
2018-09-30T09:45:02.317Z,966.34
2018-09-30T09:46:55.504Z,966.28
2018-09-30T09:47:55.505Z,966.28
2018-09-30T09:49:49.334Z,966.18
2018-09-30T09:50:49.436Z,965.79
2018-09-30T09:51:47.952Z,965.31
2018-09-30T09:52:47.956Z,965.20
2018-09-30T09:53:47.969Z,965.14
2018-09-30T09:54:47.984Z,965.09
2018-09-30T09:55:47.999Z,965.17
2018-09-30T09:56:48.011Z,965.15
2018-09-30T09:57:48.028Z,965.15
2018-09-30T09:58:48.097Z,965.11
2018-09-30T09:59:48.054Z,965.05
2018-09-30T10:00:48.066Z,965.07
2018-09-30T10:01:49.620Z,965.01
2018-09-30T10:02:49.087Z,965.03
2018-09-30T10:03:50.240Z,964.99
2018-09-30T10:04:48.461Z,964.91
2018-09-30T10:05:48.251Z,964.94
2018-09-30T10:06:48.138Z,964.89
2018-09-30T10:09:10.123Z,964.85
2018-09-30T10:11:24.619Z,964.88
2018-09-30T10:12:32.064Z,964.86
2018-09-30T10:14:19.200Z,964.84
2018-09-30T10:15:21.095Z,964.79
2018-09-30T10:16:20.980Z,964.80
2018-09-30T10:17:18.967Z,964.78
2018-09-30T10:18:20.123Z,964.75
2018-09-30T10:19:34.949Z,964.72
2018-09-30T10:21:16.622Z,964.74
2018-09-30T10:22:14.938Z,964.77
2018-09-30T10:23:15.013Z,964.77
2018-09-30T10:24:15.391Z,964.73
2018-09-30T10:25:39.929Z,964.72
2018-09-30T10:26:14.925Z,964.64
2018-09-30T10:27:14.775Z,964.64
2018-09-30T10:28:17.824Z,964.63
2018-09-30T10:29:24.711Z,964.65
2018-09-30T10:30:22.953Z,964.64
2018-09-30T10:32:08.887Z,964.62
2018-09-30T10:33:08.916Z,964.67
2018-09-30T10:35:02.332Z,964.67
2018-09-30T10:36:01.959Z,964.68
2018-09-30T10:37:54.552Z,964.63
2018-09-30T10:38:57.436Z,964.61
2018-09-30T10:43:10.881Z,964.56
2018-09-30T10:44:03.914Z,964.57
2018-09-30T10:45:56.941Z,964.51
2018-09-30T10:46:56.983Z,964.53
2018-09-30T10:47:56.815Z,964.51
2018-09-30T10:48:56.597Z,964.48
2018-09-30T10:49:57.106Z,964.41
2018-09-30T10:50:56.585Z,964.43
2018-09-30T10:51:56.652Z,964.40
2018-09-30T10:54:37.041Z,964.39
2018-09-30T10:55:37.290Z,964.38
2018-09-30T10:57:32.136Z,964.35
2018-09-30T10:58:30.447Z,964.32
2018-09-30T11:00:23.650Z,964.27
2018-09-30T11:01:23.581Z,964.22
2018-09-30T11:03:16.598Z,964.19
2018-09-30T11:04:23.664Z,964.16
2018-09-30T11:06:09.524Z,964.12
2018-09-30T11:07:16.529Z,964.13
2018-09-30T11:09:02.281Z,964.14
2018-09-30T11:10:02.334Z,964.13
2018-09-30T11:11:55.142Z,964.14
2018-09-30T11:12:55.135Z,964.11
2018-09-30T11:13:55.181Z,964.12
2018-09-30T11:14:55.168Z,964.12
2018-09-30T11:15:55.211Z,964.10
2018-09-30T11:16:55.146Z,964.08
2018-09-30T11:17:55.158Z,964.03
2018-09-30T11:18:55.178Z,964.03
2018-09-30T11:19:55.177Z,963.97
2018-09-30T11:20:55.177Z,964.00
2018-09-30T11:21:55.180Z,963.98
2018-09-30T11:22:55.197Z,963.90
2018-09-30T11:23:55.194Z,963.92
2018-09-30T11:24:55.197Z,963.90
2018-09-30T11:25:55.196Z,963.90
2018-09-30T11:26:55.209Z,963.88
2018-09-30T11:27:55.207Z,963.85
2018-09-30T11:28:55.218Z,963.86
2018-09-30T11:29:55.220Z,963.81
2018-09-30T11:30:55.226Z,963.74
2018-09-30T11:31:55.262Z,963.75
2018-09-30T11:32:55.234Z,963.72
2018-09-30T11:33:55.279Z,963.63
2018-09-30T11:34:55.248Z,963.64
2018-09-30T11:35:55.288Z,963.63
2018-09-30T11:36:55.255Z,963.59
2018-09-30T11:38:48.241Z,963.52
2018-09-30T11:39:48.169Z,963.49
2018-09-30T11:41:41.136Z,963.48
2018-09-30T11:42:41.110Z,963.43
2018-09-30T11:44:34.517Z,963.40
2018-09-30T11:45:34.473Z,963.40
2018-09-30T11:47:27.965Z,963.41
2018-09-30T11:48:27.903Z,963.41
2018-09-30T11:50:20.903Z,963.39
2018-09-30T11:51:28.958Z,963.34
2018-09-30T11:53:13.742Z,963.31
2018-09-30T11:54:13.716Z,963.31
2018-09-30T11:56:06.679Z,963.34
2018-09-30T11:57:06.712Z,963.35
2018-09-30T11:59:00.158Z,963.28
2018-09-30T12:00:00.114Z,963.28
2018-09-30T12:01:54.204Z,963.26
2018-09-30T12:02:54.071Z,963.31
2018-09-30T12:03:54.017Z,963.20
2018-09-30T12:06:19.802Z,963.21
2018-09-30T12:07:19.633Z,963.18
2018-09-30T12:08:19.736Z,963.17
2018-09-30T12:09:18.120Z,963.18
2018-09-30T12:10:18.048Z,963.14
2018-09-30T12:11:20.578Z,963.12
2018-09-30T12:12:18.050Z,963.09
2018-09-30T12:13:18.086Z,963.05
2018-09-30T12:14:18.078Z,963.10
2018-09-30T12:15:18.097Z,963.02
2018-09-30T12:16:18.166Z,963.04
2018-09-30T12:17:18.074Z,963.03
2018-09-30T12:18:20.667Z,962.98
2018-09-30T12:19:18.077Z,962.95
2018-09-30T12:20:19.703Z,962.97
2018-09-30T12:21:18.158Z,962.95
2018-09-30T12:22:20.189Z,962.93
2018-09-30T12:23:18.126Z,962.91
2018-09-30T12:24:20.184Z,962.88
2018-09-30T12:25:18.291Z,962.83
2018-09-30T12:26:20.131Z,962.81
2018-09-30T12:27:18.129Z,962.79
2018-09-30T12:28:18.181Z,962.78
2018-09-30T12:29:19.246Z,962.74
2018-09-30T12:32:56.870Z,962.75
2018-09-30T12:33:19.716Z,962.68
2018-09-30T12:34:34.385Z,962.68
2018-09-30T12:35:14.694Z,962.66
2018-09-30T12:36:17.302Z,962.64
2018-09-30T12:37:16.692Z,962.61
2018-09-30T12:38:14.630Z,962.61
2018-09-30T12:39:14.644Z,962.52
2018-09-30T12:40:14.584Z,962.54
2018-09-30T12:41:14.587Z,962.49
2018-09-30T12:42:14.657Z,962.50
2018-09-30T12:43:14.671Z,962.49
2018-09-30T12:44:14.629Z,962.45
2018-09-30T12:45:22.295Z,962.47
2018-09-30T12:46:14.760Z,962.45
2018-09-30T12:47:14.671Z,962.40
2018-09-30T12:48:14.608Z,962.41
2018-09-30T12:49:14.612Z,962.37
2018-09-30T12:50:14.625Z,962.38
2018-09-30T12:51:14.637Z,962.37
2018-09-30T12:52:16.258Z,962.38
2018-09-30T12:53:16.229Z,962.41
2018-09-30T12:54:14.641Z,962.40
2018-09-30T12:55:14.980Z,962.39
2018-09-30T12:56:14.745Z,962.38
2018-09-30T12:57:14.651Z,962.34
2018-09-30T12:58:14.686Z,962.37
2018-09-30T12:59:14.692Z,962.35
2018-09-30T13:00:22.902Z,962.36
2018-09-30T13:02:08.639Z,962.33
2018-09-30T13:03:08.870Z,962.35
2018-09-30T13:04:10.582Z,962.31
2018-09-30T13:06:02.525Z,962.33
2018-09-30T13:07:01.642Z,962.33
2018-09-30T13:08:54.560Z,962.27
2018-09-30T13:09:54.471Z,962.24